Aérodrome :
LOGIN :

S'inscrire | Disclaimer

   EN    FR    IT 

 










Légende :    VFR   VFR Marginal   IFR   IFR Intensif   IFR Très Intensif
Visi : 
Plafond : 
>= 8 km
>= 3000ft
5 à 8 km
1000 à 3000 ft
1500m à 5 km
500 à 1000 ft
800 à 1500m
200 à 500 ft
< 800m
< 200 ft
Symboles :   Orages  Brouillard  Fortes neiges  Fortes précipitations  Vent > 20 kt
SIGMETs :   Divers  Orages  Givrage  Turbulence  Onde Orograph.  Cendres Volcan.







- Altitude de l'aérodrome : 768 ft
- Code IATA : MXP


LIMC - Milano Malpensa

DERNIER METAR :
  • 200120Z VRB02KT CAVOK 10/02 Q1015 NOSIG

METARs EXPIRÉS :
  • 200050Z VRB02KT CAVOK 12/02 Q1015 NOSIG
  • 200020Z 35005KT CAVOK 12/02 Q1015 NOSIG
  • 192350Z 36007KT CAVOK 12/03 Q1015 NOSIG
  • 192320Z 03006KT CAVOK 11/03 Q1014 NOSIG
  • 192250Z 01009KT CAVOK 12/02 Q1014 NOSIG

TAF TAF LIMC
Valide du 20 à 00h jusqu'au 21 à 06h UTC


192300Z 2000/2106 34010KT 9999 SCT090
Pas de NOTAMs connus pour ce terrain.
1 SIGMET publié pour la FIR Milano (LIMM) :
 
Turbulence forte
LIMM SIGMET 13 VALID 200000/200400 LIMM
LIMM MILANO FIR SEV TURB FCST E OF LINE N4613 E01012 - N4336 E01030 FL260/360 MOV E WKN=



MET'MAP, la Météo Aéronautique d'un coup d'oeil ! - Copyright ORBIFLY Décembre 2007 - Disclaimer

ORBIFLY MET'MAP TEAM :

Programmation & Développement : Alexandra Zaïnal
Conception & Développement : Baudouin d'Aumeries
Co-Programmation & Développement : Marc-Olivier Méhu
Soutien technique & logistique : Manuel Goepfert

Contact : metmap@orbifly.com




SOURCES & CREDITS :

   NOAA